Time;durP1;ratioP1;P1;durP2;ratioP2;P2;SDS_P1;SDS_P2;PMS_P1;PMS_P2;Temp;Humidity;BMP_temperature;BMP_pressure;BME280_temperature;BME280_humidity;BME280_pressure;Samples;Min_cycle;Max_cycle;Signal;HPM_P1;HPM_P2
2021/03/28 00:01:50;;;;;;;0.40;0.30;;;;;;;3.41;98.11;102069.50;5074554;28;20479;-69
2021/03/28 00:04:19;;;;;;;0.40;0.30;;;;;;;3.40;97.97;102074.03;5074380;28;20462;-68
2021/03/28 00:06:57;;;;;;;0.40;0.30;;;;;;;3.39;97.98;102071.59;5073975;28;20518;-69
2021/03/28 00:09:27;;;;;;;0.60;0.40;;;;;;;3.35;98.24;102068.50;5074064;28;20907;-68
2021/03/28 00:12:02;;;;;;;0.40;0.30;;;;;;;3.37;97.80;102074.50;5074243;28;20814;-69
2021/03/28 00:14:46;;;;;;;0.40;0.40;;;;;;;3.36;97.99;102074.69;5074260;28;20425;-69
2021/03/28 00:17:37;;;;;;;0.40;0.30;;;;;;;3.29;97.89;102072.06;5073873;28;20856;-69
2021/03/28 00:20:31;;;;;;;0.40;0.30;;;;;;;3.28;97.85;102071.25;5071600;28;20831;-68
2021/03/28 00:23:15;;;;;;;0.40;0.30;;;;;;;3.25;97.72;102082.38;5074091;28;20505;-68
2021/03/28 00:25:47;;;;;;;0.50;0.50;;;;;;;3.25;98.00;102076.22;5074051;28;20433;-68
2021/03/28 00:28:24;;;;;;;0.60;0.60;;;;;;;3.25;98.17;102081.56;5079254;28;20422;-69
2021/03/28 00:30:51;;;;;;;0.50;0.43;;;;;;;3.23;98.65;102079.09;5073700;28;20418;-68
2021/03/28 00:33:24;;;;;;;0.40;0.30;;;;;;;3.26;98.90;102080.53;5073845;28;20445;-69
2021/03/28 00:35:55;;;;;;;0.40;0.30;;;;;;;3.25;98.35;102087.72;5073805;28;20421;-68
2021/03/28 00:38:25;;;;;;;0.50;0.50;;;;;;;3.23;98.13;102080.94;5073694;28;20433;-68
2021/03/28 00:41:13;;;;;;;0.40;0.30;;;;;;;3.20;98.78;102087.56;5073792;28;20425;-69
2021/03/28 00:43:43;;;;;;;3.83;0.60;;;;;;;3.22;98.13;102077.44;5073610;28;20465;-68
2021/03/28 00:46:21;;;;;;;0.50;0.40;;;;;;;3.20;98.76;102084.88;5073305;28;20462;-69
2021/03/28 00:48:55;;;;;;;0.40;0.30;;;;;;;3.24;97.98;102087.97;5073681;28;20426;-68
2021/03/28 00:51:24;;;;;;;1.00;1.00;;;;;;;3.26;98.93;102091.22;5073673;28;20491;-68
2021/03/28 00:53:55;;;;;;;1.90;0.50;;;;;;;3.24;98.95;102091.47;5073042;28;20488;-68
2021/03/28 00:56:26;;;;;;;0.40;0.30;;;;;;;3.22;98.89;102088.16;5073116;28;21024;-69
2021/03/28 00:58:57;;;;;;;0.40;0.30;;;;;;;3.25;98.64;102087.72;5106461;22;20499;-64
2021/03/28 01:01:31;;;;;;;0.50;0.40;;;;;;;3.24;98.41;102085.28;5093589;28;20910;-62
2021/03/28 01:04:27;;;;;;;0.40;0.33;;;;;;;3.25;98.28;102093.09;5093390;28;20869;-65
2021/03/28 01:06:57;;;;;;;0.87;0.43;;;;;;;3.25;98.22;102090.41;5093486;28;20528;-64
2021/03/28 01:09:36;;;;;;;0.40;0.33;;;;;;;3.27;98.10;102098.22;5093892;28;20452;-65
2021/03/28 01:12:44;;;;;;;1.03;0.40;;;;;;;3.24;98.04;102093.31;5093474;28;20456;-65
2021/03/28 01:15:49;;;;;;;0.40;0.30;;;;;;;3.23;98.31;102107.72;5092841;28;20809;-66
2021/03/28 01:18:25;;;;;;;0.40;0.30;;;;;;;3.23;98.13;102100.53;5093205;28;21015;-65
2021/03/28 01:20:59;;;;;;;0.40;0.30;;;;;;;3.18;99.33;102108.34;5093529;28;20428;-64
2021/03/28 01:23:36;;;;;;;0.40;0.30;;;;;;;3.22;99.21;102108.75;5093418;28;20464;-65
2021/03/28 01:26:33;;;;;;;0.50;0.43;;;;;;;3.25;98.98;102111.00;5093513;28;20427;-64
2021/03/28 01:29:15;;;;;;;0.40;0.33;;;;;;;3.26;98.95;102115.31;5093004;28;20893;-64
2021/03/28 01:31:50;;;;;;;0.40;0.30;;;;;;;3.27;98.41;102101.72;5093401;28;20424;-65
2021/03/28 01:34:22;;;;;;;1.00;0.77;;;;;;;3.27;98.53;102117.78;5093129;28;21030;-64
2021/03/28 01:36:52;;;;;;;0.50;0.40;;;;;;;3.27;98.67;102117.78;5093393;28;20425;-64
2021/03/28 01:39:23;;;;;;;0.40;0.30;;;;;;;3.27;99.10;102111.59;5093134;28;20460;-65
2021/03/28 01:41:55;;;;;;;0.40;0.30;;;;;;;3.27;99.20;102114.28;5093490;28;20429;-64
2021/03/28 01:44:29;;;;;;;0.40;0.30;;;;;;;3.32;99.20;102116.31;5093211;28;20541;-65
2021/03/28 01:47:09;;;;;;;0.40;0.30;;;;;;;3.32;98.54;102110.97;5093377;28;20436;-64
2021/03/28 01:49:53;;;;;;;0.40;0.20;;;;;;;3.26;98.27;102113.47;5092957;28;20981;-64
2021/03/28 01:52:30;;;;;;;0.50;0.40;;;;;;;3.24;97.81;102115.56;5093251;28;20413;-65
2021/03/28 01:55:06;;;;;;;0.40;0.30;;;;;;;3.24;97.43;102112.88;5093243;28;20428;-65
2021/03/28 01:57:44;;;;;;;0.40;0.30;;;;;;;3.21;98.03;102107.94;5093149;28;20473;-64
2021/03/28 02:00:31;;;;;;;0.40;0.30;;;;;;;3.23;97.80;102116.59;5092775;28;20452;-65
2021/03/28 02:03:05;;;;;;;1.80;0.50;;;;;;;3.19;98.35;102115.38;5093078;28;20464;-65
2021/03/28 02:05:50;;;;;;;3.37;0.67;;;;;;;3.21;97.99;102113.28;5093339;28;20436;-67
2021/03/28 02:08:23;;;;;;;0.40;0.30;;;;;;;3.20;97.71;102105.47;5097071;28;20460;-67
2021/03/28 02:11:00;;;;;;;0.40;0.30;;;;;;;3.19;97.45;102101.16;5097089;28;20832;-66
2021/03/28 02:13:39;;;;;;;0.50;0.40;;;;;;;3.19;97.61;102103.84;5096793;28;20431;-68
2021/03/28 02:16:17;;;;;;;0.40;0.30;;;;;;;3.17;97.22;102101.38;5096902;28;20428;-67
2021/03/28 02:19:00;;;;;;;0.70;0.57;;;;;;;3.16;97.20;102105.09;5096881;28;20471;-67
2021/03/28 02:21:46;;;;;;;0.40;0.30;;;;;;;3.13;97.95;102116.22;5096879;28;20796;-68
2021/03/28 02:24:18;;;;;;;0.60;0.53;;;;;;;3.13;97.38;102116.22;5096912;28;20468;-67
2021/03/28 02:26:47;;;;;;;0.40;0.30;;;;;;;3.13;97.74;102121.56;5096415;28;20822;-68
2021/03/28 02:29:21;;;;;;;0.80;0.50;;;;;;;3.11;97.61;102114.81;5096682;28;20456;-67
2021/03/28 02:32:01;;;;;;;0.50;0.43;;;;;;;3.14;98.11;102123.19;5096681;28;20425;-67
2021/03/28 02:34:33;;;;;;;1.37;1.27;;;;;;;3.15;98.83;102110.66;5096462;28;20804;-67
2021/03/28 02:37:08;;;;;;;0.83;0.50;;;;;;;3.14;98.44;102111.69;5096591;28;20432;-67
2021/03/28 02:39:43;;;;;;;0.40;0.30;;;;;;;3.14;98.30;102115.16;5096506;28;20458;-67
2021/03/28 02:42:16;;;;;;;0.40;0.30;;;;;;;3.13;98.53;102112.72;5096482;28;20497;-67
2021/03/28 02:44:55;;;;;;;0.80;0.50;;;;;;;3.16;98.73;102115.78;5096303;28;20475;-67
2021/03/28 02:47:39;;;;;;;0.50;0.40;;;;;;;3.15;98.77;102124.88;5096506;28;20424;-68
2021/03/28 02:50:25;;;;;;;1.03;0.90;;;;;;;3.14;98.34;102125.88;5096266;28;20553;-67
2021/03/28 02:53:10;;;;;;;0.47;0.40;;;;;;;3.16;98.59;102131.03;5096293;28;20433;-67
2021/03/28 02:56:03;;;;;;;0.60;0.40;;;;;;;3.12;98.05;102130.63;5096254;28;20429;-67
2021/03/28 02:58:46;;;;;;;1.57;0.60;;;;;;;3.12;98.45;102129.81;5095818;28;20869;-67
2021/03/28 03:01:29;;;;;;;0.83;0.40;;;;;;;3.13;98.18;102132.28;5096198;28;20776;-67
2021/03/28 03:04:09;;;;;;;0.40;0.30;;;;;;;3.13;98.46;102134.13;5095726;28;20994;-67
2021/03/28 03:06:52;;;;;;;1.90;1.80;;;;;;;3.10;97.86;102138.06;5095697;28;20932;-67
2021/03/28 03:09:32;;;;;;;0.40;0.30;;;;;;;3.11;98.12;102137.03;5095865;28;20449;-65
2021/03/28 03:12:15;;;;;;;0.40;0.30;;;;;;;3.09;98.04;102140.94;5095962;28;20432;-67
2021/03/28 03:15:01;;;;;;;0.90;0.60;;;;;;;3.04;98.21;102141.59;5095925;28;20831;-67
2021/03/28 03:18:10;;;;;;;0.40;0.30;;;;;;;2.95;97.31;102140.19;5094455;28;20849;-67
2021/03/28 03:21:13;;;;;;;0.40;0.40;;;;;;;2.86;97.25;102141.44;5095731;28;20448;-67
2021/03/28 03:24:33;;;;;;;0.40;0.30;;;;;;;2.88;97.36;102144.72;5095690;28;20521;-68
2021/03/28 03:27:34;;;;;;;1.47;0.90;;;;;;;2.90;97.29;102153.38;5095707;28;20448;-67
2021/03/28 03:30:26;;;;;;;0.70;0.60;;;;;;;2.91;97.39;102152.34;5091453;28;20896;-67
2021/03/28 03:33:18;;;;;;;0.40;0.30;;;;;;;2.86;96.09;102146.81;5093452;28;20494;-68
2021/03/28 03:35:53;;;;;;;0.50;0.50;;;;;;;2.74;96.04;102149.28;5095453;28;20421;-68
2021/03/28 03:38:34;;;;;;;0.40;0.30;;;;;;;2.77;96.73;102160.41;5095379;28;20456;-68
2021/03/28 03:41:36;;;;;;;1.23;0.70;;;;;;;2.80;96.99;102153.00;5095447;28;20478;-68
2021/03/28 03:44:28;;;;;;;1.13;0.57;;;;;;;2.80;97.46;102163.72;5095275;28;20468;-67
2021/03/28 03:47:13;;;;;;;0.40;0.30;;;;;;;2.78;97.65;102164.72;5095110;28;20417;-67
2021/03/28 03:50:02;;;;;;;0.40;0.30;;;;;;;2.76;96.96;102168.66;5094883;28;20929;-68
2021/03/28 03:52:56;;;;;;;0.40;0.30;;;;;;;2.77;97.45;102165.75;5094738;28;20902;-69
2021/03/28 03:55:33;;;;;;;0.40;0.30;;;;;;;2.78;97.75;102163.91;5095102;28;20820;-68
2021/03/28 03:58:07;;;;;;;0.40;0.30;;;;;;;2.83;98.37;102164.09;5094810;28;20869;-68
2021/03/28 04:00:42;;;;;;;0.40;0.30;;;;;;;2.83;97.66;102165.94;5095026;28;20432;-68
2021/03/28 04:03:16;;;;;;;0.50;0.50;;;;;;;2.85;98.81;102166.56;5094880;28;20460;-68
2021/03/28 04:05:59;;;;;;;0.40;0.20;;;;;;;2.87;98.19;102161.81;5094905;28;20424;-68
2021/03/28 04:08:49;;;;;;;0.60;0.53;;;;;;;2.86;97.63;102169.03;5094385;28;20475;-68
2021/03/28 04:11:33;;;;;;;0.40;0.30;;;;;;;2.86;97.71;102163.66;5082311;28;20509;-67
2021/03/28 04:14:16;;;;;;;0.40;0.30;;;;;;;2.88;97.79;102163.44;5094790;28;20434;-67
2021/03/28 04:17:01;;;;;;;1.00;0.80;;;;;;;2.90;97.01;102166.75;5094634;28;20436;-67
2021/03/28 04:19:43;;;;;;;0.40;0.30;;;;;;;2.88;96.44;102166.97;5094563;28;20456;-67
2021/03/28 04:22:27;;;;;;;0.40;0.30;;;;;;;2.88;96.75;102166.13;5094587;28;20439;-67
2021/03/28 04:25:02;;;;;;;0.40;0.30;;;;;;;2.85;97.48;102172.75;5094466;28;20513;-67
2021/03/28 04:27:52;;;;;;;0.40;0.30;;;;;;;2.85;97.21;102169.25;5094432;28;20466;-68
2021/03/28 04:30:32;;;;;;;0.40;0.30;;;;;;;2.85;96.86;102161.22;5094154;28;20425;-68
2021/03/28 04:33:06;;;;;;;0.93;0.40;;;;;;;2.84;96.42;102164.94;5094405;28;20420;-65
2021/03/28 04:35:41;;;;;;;0.40;0.30;;;;;;;2.74;95.74;102166.16;5094327;28;20416;-65
2021/03/28 04:38:23;;;;;;;0.40;0.30;;;;;;;2.71;94.82;102150.56;5093887;28;20818;-65
2021/03/28 04:41:25;;;;;;;0.40;0.30;;;;;;;2.70;94.80;102154.25;5094214;28;20435;-65
2021/03/28 04:44:10;;;;;;;0.93;0.87;;;;;;;2.76;95.47;102164.13;5080084;28;20492;-65
2021/03/28 04:47:02;;;;;;;0.50;0.43;;;;;;;2.68;95.00;102155.50;5093844;28;20835;-64
2021/03/28 04:49:53;;;;;;;0.80;0.73;;;;;;;2.70;95.07;102169.47;5093777;28;20839;-65
2021/03/28 04:52:50;;;;;;;0.40;0.30;;;;;;;2.73;95.17;102167.19;5091889;28;20456;-65
2021/03/28 04:55:46;;;;;;;0.40;0.30;;;;;;;2.75;95.45;102170.50;5093993;28;20428;-65
2021/03/28 04:58:32;;;;;;;0.40;0.30;;;;;;;2.80;95.68;102174.41;5049009;28;20487;-65
2021/03/28 05:01:18;;;;;;;0.40;0.30;;;;;;;2.81;95.39;102176.03;5093943;28;20440;-64
2021/03/28 05:04:20;;;;;;;0.40;0.40;;;;;;;2.78;96.32;102178.09;5093792;28;20482;-65
2021/03/28 05:07:38;;;;;;;0.40;0.30;;;;;;;2.81;96.74;102176.88;5093786;28;20889;-65
2021/03/28 05:10:30;;;;;;;0.50;0.40;;;;;;;2.84;97.21;102179.13;5093008;28;20480;-66
2021/03/28 05:13:18;;;;;;;0.40;0.30;;;;;;;2.88;97.21;102180.34;5093707;28;20457;-65
2021/03/28 05:16:29;;;;;;;0.40;0.30;;;;;;;2.87;96.65;102180.53;5093689;28;20429;-65
2021/03/28 05:19:39;;;;;;;0.40;0.30;;;;;;;2.92;96.31;102188.75;5088884;28;20483;-64
2021/03/28 05:22:38;;;;;;;0.40;0.30;;;;;;;2.95;96.19;102183.00;5084374;28;20452;-64
2021/03/28 05:25:33;;;;;;;0.40;0.30;;;;;;;2.94;96.02;102178.69;5084816;28;20585;-64
2021/03/28 05:28:43;;;;;;;0.40;0.30;;;;;;;2.99;95.53;102185.03;5093100;28;20910;-65
2021/03/28 05:31:52;;;;;;;0.40;0.30;;;;;;;2.99;94.16;102189.56;5093417;28;20428;-68
2021/03/28 05:34:55;;;;;;;0.40;0.30;;;;;;;2.98;94.21;102182.59;5093567;28;20456;-65
2021/03/28 05:37:56;;;;;;;0.40;0.20;;;;;;;3.00;94.19;102183.19;5093345;28;20424;-63
2021/03/28 05:40:38;;;;;;;0.50;0.40;;;;;;;3.03;94.34;102188.94;5093457;28;20421;-65
2021/03/28 05:43:33;;;;;;;0.40;0.30;;;;;;;3.01;93.75;102184.81;5097555;28;20778;-64
2021/03/28 05:46:17;;;;;;;0.40;0.30;;;;;;;3.09;94.00;102184.59;5097501;28;20428;-64
2021/03/28 05:49:00;;;;;;;0.40;0.30;;;;;;;3.15;92.79;102180.28;5097154;28;20546;-64
2021/03/28 05:51:52;;;;;;;0.40;0.30;;;;;;;3.18;92.48;102186.00;5097396;28;20429;-63
2021/03/28 05:54:54;;;;;;;0.40;0.30;;;;;;;3.24;92.73;102179.81;5097371;28;20424;-63
2021/03/28 05:58:00;;;;;;;0.40;0.30;;;;;;;3.29;93.08;102185.34;5097333;28;20444;-64
2021/03/28 06:00:51;;;;;;;0.83;0.77;;;;;;;3.37;92.43;102181.59;5096831;28;21118;-63
2021/03/28 06:04:00;;;;;;;0.40;0.30;;;;;;;3.45;92.06;102185.88;5097073;28;20464;-64
2021/03/28 06:06:54;;;;;;;0.40;0.40;;;;;;;3.54;92.13;102187.28;5097241;28;20425;-64
2021/03/28 06:10:10;;;;;;;0.40;0.20;;;;;;;3.68;90.69;102177.31;5096974;28;20460;-64
2021/03/28 06:13:06;;;;;;;0.40;0.30;;;;;;;3.79;90.46;102180.13;5070651;28;20474;-64
2021/03/28 06:15:49;;;;;;;1.80;1.53;;;;;;;3.89;89.09;102193.03;5095007;28;20866;-63
2021/03/28 06:18:41;;;;;;;0.60;0.30;;;;;;;3.97;88.95;102186.59;5096850;28;20475;-64
2021/03/28 06:21:48;;;;;;;0.50;0.40;;;;;;;4.06;89.03;102190.66;5096926;28;20825;-64
2021/03/28 06:24:50;;;;;;;1.57;0.60;;;;;;;4.17;87.62;102192.66;5096655;28;20541;-63
2021/03/28 06:28:06;;;;;;;1.03;0.93;;;;;;;4.24;87.77;102188.03;5075308;28;20866;-65
2021/03/28 06:31:10;;;;;;;0.40;0.30;;;;;;;4.35;86.21;102193.75;5021116;28;20868;-64
2021/03/28 06:34:08;;;;;;;0.40;0.30;;;;;;;4.43;85.18;102186.25;5096663;28;20474;-65
2021/03/28 06:37:12;;;;;;;0.40;0.30;;;;;;;4.54;85.63;102187.38;5096620;28;20428;-65
2021/03/28 06:40:05;;;;;;;0.40;0.20;;;;;;;4.63;85.24;102185.22;5096144;28;20976;-64
2021/03/28 06:43:10;;;;;;;0.40;0.30;;;;;;;4.71;84.36;102190.31;5096512;28;20425;-65
2021/03/28 06:45:46;;;;;;;0.40;0.30;;;;;;;4.84;84.35;102190.16;5096390;28;20450;-65
2021/03/28 06:48:36;;;;;;;0.40;0.30;;;;;;;4.96;83.69;102190.25;5096317;28;20456;-65
2021/03/28 06:51:27;;;;;;;0.50;0.30;;;;;;;5.06;82.32;102194.06;5096430;28;20849;-67
2021/03/28 06:54:40;;;;;;;0.40;0.37;;;;;;;5.19;82.61;102186.88;5096337;28;20424;-67
2021/03/28 06:57:42;;;;;;;0.40;0.30;;;;;;;5.29;81.72;102185.28;5096317;28;20421;-67
2021/03/28 07:00:40;;;;;;;1.63;0.97;;;;;;;5.42;81.84;102195.06;5094617;28;20471;-67
2021/03/28 07:03:50;;;;;;;2.20;0.47;;;;;;;5.56;80.48;102195.69;5099187;22;585867;-69
2021/03/28 07:06:27;;;;;;;0.40;0.30;;;;;;;5.63;79.37;102193.75;4994169;28;20453;-70
2021/03/28 07:09:19;;;;;;;0.50;0.43;;;;;;;5.78;79.33;102196.00;4994636;28;20484;-70
2021/03/28 07:12:02;;;;;;;0.50;0.40;;;;;;;5.89;80.34;102191.72;5036361;28;20446;-68
2021/03/28 07:15:11;;;;;;;0.40;0.30;;;;;;;6.01;78.03;102203.34;5055361;28;20466;-68
2021/03/28 07:18:14;;;;;;;0.50;0.40;;;;;;;6.14;77.28;102205.84;5055513;28;20822;-70
2021/03/28 07:21:10;;;;;;;0.40;0.30;;;;;;;6.26;76.87;102205.88;5055597;28;20947;-71
2021/03/28 07:24:00;;;;;;;0.63;0.50;;;;;;;6.36;75.27;102206.09;5055575;28;20545;-70
2021/03/28 07:26:49;;;;;;;1.50;0.97;;;;;;;6.47;74.70;102191.84;5055473;28;20427;-69
2021/03/28 07:29:53;;;;;;;0.93;0.63;;;;;;;6.57;74.92;102196.66;5055372;28;20434;-70
2021/03/28 07:32:39;;;;;;;0.40;0.30;;;;;;;6.68;73.82;102203.88;5053241;28;20458;-70
2021/03/28 07:35:44;;;;;;;0.40;0.30;;;;;;;6.79;72.96;102197.69;5055210;28;20458;-72
2021/03/28 07:38:38;;;;;;;0.40;0.20;;;;;;;6.88;72.29;102200.03;5055072;28;20910;-71
2021/03/28 07:41:42;;;;;;;2.27;0.77;;;;;;;7.03;71.73;102203.03;5055401;28;20427;-70
2021/03/28 07:44:50;;;;;;;0.40;0.30;;;;;;;7.14;70.03;102210.28;5055011;28;21026;-71
2021/03/28 07:47:50;;;;;;;0.93;0.40;;;;;;;7.35;69.66;102203.44;5055070;28;20422;-69
2021/03/28 07:50:47;;;;;;;0.83;0.60;;;;;;;7.43;69.38;102210.31;5057496;28;20457;-70
2021/03/28 07:53:37;;;;;;;0.40;0.30;;;;;;;7.47;69.25;102217.69;5057184;28;20422;-69
2021/03/28 07:56:20;;;;;;;0.60;0.40;;;;;;;7.53;67.87;102214.03;5054952;28;20430;-69
2021/03/28 07:58:58;;;;;;;0.40;0.30;;;;;;;7.64;69.23;102216.94;5055278;28;20430;-69
2021/03/28 08:01:40;;;;;;;1.10;1.00;;;;;;;7.61;66.99;102215.50;5054703;28;20441;-69
2021/03/28 08:04:48;;;;;;;4.63;0.90;;;;;;;7.60;68.51;102211.19;5053653;28;20486;-69
2021/03/28 08:07:30;;;;;;;0.40;0.30;;;;;;;7.70;68.49;102206.00;5038977;28;20560;-69
2021/03/28 08:10:22;;;;;;;0.50;0.30;;;;;;;7.71;66.57;102202.25;5054243;28;20430;-69
2021/03/28 08:13:21;;;;;;;0.40;0.30;;;;;;;7.79;65.47;102209.94;5054163;28;20901;-69
2021/03/28 08:16:03;;;;;;;0.80;0.63;;;;;;;7.91;66.32;102209.06;5054151;28;20930;-69
2021/03/28 08:18:37;;;;;;;0.40;0.30;;;;;;;8.03;65.25;102207.13;5054245;28;20415;-70
2021/03/28 08:21:31;;;;;;;0.40;0.30;;;;;;;8.22;65.71;102202.28;5054304;28;20434;-70
2021/03/28 08:24:31;;;;;;;0.40;0.30;;;;;;;8.37;64.34;102215.25;5054114;28;20582;-69
2021/03/28 08:27:34;;;;;;;0.40;0.30;;;;;;;8.48;62.72;102217.06;5054393;28;20799;-69
2021/03/28 08:30:17;;;;;;;0.40;0.30;;;;;;;8.58;62.60;102211.81;5003629;28;20859;-69
2021/03/28 08:33:02;;;;;;;0.80;0.60;;;;;;;8.69;62.60;102224.41;5055224;28;20453;-69
2021/03/28 08:35:45;;;;;;;0.40;0.30;;;;;;;8.77;60.33;102215.88;5054247;28;20907;-70
2021/03/28 08:38:51;;;;;;;0.83;0.50;;;;;;;8.76;60.66;102214.22;5053850;28;20853;-71
2021/03/28 08:41:41;;;;;;;0.60;0.60;;;;;;;8.91;60.79;102210.13;5054120;28;20430;-70
2021/03/28 08:44:50;;;;;;;0.40;0.40;;;;;;;8.95;59.37;102213.97;5054174;28;20492;-71
2021/03/28 08:47:39;;;;;;;0.40;0.30;;;;;;;9.04;59.97;102205.16;4992288;28;20449;-70
2021/03/28 08:50:16;;;;;;;0.40;0.30;;;;;;;9.08;59.05;102200.09;4992373;28;20460;-69
2021/03/28 08:53:18;;;;;;;0.40;0.30;;;;;;;9.04;58.75;102202.47;5038065;28;20449;-70
2021/03/28 08:56:21;;;;;;;5.57;0.47;;;;;;;9.14;59.43;102203.66;5054661;28;20422;-73
2021/03/28 08:58:53;;;;;;;0.50;0.40;;;;;;;9.32;59.76;102201.44;5053910;28;20438;-71
2021/03/28 09:01:24;;;;;;;0.90;0.70;;;;;;;9.61;60.44;102198.53;5053445;28;20959;-69
2021/03/28 09:03:57;;;;;;;0.40;0.30;;;;;;;9.70;59.01;102197.00;5053585;28;20533;-69
2021/03/28 09:06:36;;;;;;;0.70;0.60;;;;;;;9.88;59.73;102192.31;5053920;28;20452;-69
2021/03/28 09:09:06;;;;;;;0.57;0.37;;;;;;;9.95;57.52;102188.28;5053262;28;20476;-69
2021/03/28 09:11:52;;;;;;;0.40;0.30;;;;;;;9.88;58.15;102186.91;5053677;28;20431;-69
2021/03/28 09:14:47;;;;;;;0.40;0.40;;;;;;;9.82;58.05;102186.81;5053409;28;20454;-69
2021/03/28 09:17:22;;;;;;;1.57;0.40;;;;;;;9.86;58.58;102187.13;5053354;28;20430;-69
2021/03/28 09:20:08;;;;;;;0.40;0.30;;;;;;;9.97;57.98;102180.75;5053486;28;20425;-69
2021/03/28 09:22:47;;;;;;;0.50;0.40;;;;;;;10.13;57.76;102192.50;5053440;28;20418;-69
2021/03/28 09:25:22;;;;;;;0.40;0.30;;;;;;;10.29;55.45;102190.78;5053158;28;20481;-69
2021/03/28 09:27:55;;;;;;;0.60;0.40;;;;;;;10.46;56.39;102185.22;5053340;28;20430;-69
2021/03/28 09:30:25;;;;;;;0.70;0.60;;;;;;;10.56;55.69;102196.94;5053141;28;20800;-70
2021/03/28 09:33:25;;;;;;;0.50;0.40;;;;;;;10.61;54.51;102196.97;5053172;28;20502;-69
2021/03/28 09:36:11;;;;;;;0.50;0.40;;;;;;;10.55;53.94;102197.19;5047908;28;20473;-69
2021/03/28 09:39:19;;;;;;;0.40;0.30;;;;;;;10.49;54.45;102190.09;5053327;28;20426;-68
2021/03/28 09:42:09;;;;;;;0.40;0.30;;;;;;;10.54;54.78;102188.25;5053022;28;20433;-70
2021/03/28 09:44:45;;;;;;;0.70;0.43;;;;;;;10.66;55.36;102190.75;5052943;28;20486;-69
2021/03/28 09:47:18;;;;;;;0.50;0.33;;;;;;;10.73;55.19;102196.78;5052792;28;20975;-69
2021/03/28 09:50:02;;;;;;;0.40;0.30;;;;;;;10.88;53.94;102184.38;5052784;28;20974;-66
2021/03/28 09:52:44;;;;;;;0.40;0.30;;;;;;;11.00;54.88;102190.41;5052685;28;20943;-68
2021/03/28 09:55:43;;;;;;;0.40;0.27;;;;;;;11.15;53.53;102190.47;5052901;28;20453;-68
2021/03/28 09:58:50;;;;;;;0.40;0.30;;;;;;;11.25;53.85;102198.66;5052815;28;20957;-69
2021/03/28 10:01:28;;;;;;;3.50;1.10;;;;;;;11.37;53.26;102180.22;5052990;28;20446;-69
2021/03/28 10:03:59;;;;;;;0.80;0.50;;;;;;;11.44;52.44;102181.88;5052675;28;20520;-70
2021/03/28 10:06:26;;;;;;;0.97;0.53;;;;;;;11.46;52.62;102185.13;5053027;28;20533;-69
2021/03/28 10:09:01;;;;;;;0.40;0.30;;;;;;;11.50;52.94;102178.09;5053451;28;20442;-72
2021/03/28 10:11:37;;;;;;;0.57;0.57;;;;;;;11.41;53.36;102172.38;5053058;28;20426;-70
2021/03/28 10:14:29;;;;;;;0.40;0.30;;;;;;;11.54;53.55;102179.19;5052655;28;20473;-71
2021/03/28 10:17:18;;;;;;;0.57;0.33;;;;;;;11.34;52.83;102180.78;5053195;28;20427;-70
2021/03/28 10:19:47;;;;;;;0.90;0.47;;;;;;;11.40;53.50;102183.50;5058282;28;20870;-70
2021/03/28 10:22:35;;;;;;;1.83;0.40;;;;;;;11.35;53.82;102182.41;5052689;28;20449;-70
2021/03/28 10:25:34;;;;;;;0.50;0.40;;;;;;;11.23;54.13;102195.38;5052548;28;20486;-70
2021/03/28 10:28:53;;;;;;;0.40;0.30;;;;;;;11.13;53.36;102175.53;5055354;28;20454;-70
2021/03/28 10:31:27;;;;;;;0.40;0.30;;;;;;;11.21;54.98;102181.28;5056537;28;20434;-70
2021/03/28 10:34:40;;;;;;;0.50;0.50;;;;;;;11.28;54.04;102179.13;5056289;28;20498;-70
2021/03/28 10:37:32;;;;;;;0.40;0.33;;;;;;;11.40;53.66;102165.31;5050658;28;20454;-70
2021/03/28 10:40:18;;;;;;;0.80;0.57;;;;;;;11.51;53.37;102169.72;5056249;28;20601;-70
2021/03/28 10:42:50;;;;;;;0.80;0.50;;;;;;;11.55;54.28;102164.53;5055989;28;20450;-71
2021/03/28 10:45:41;;;;;;;0.50;0.33;;;;;;;11.53;52.91;102158.56;5055952;28;20895;-69
2021/03/28 10:48:54;;;;;;;0.50;0.50;;;;;;;11.52;54.16;102148.81;5056080;28;20475;-70
2021/03/28 10:51:56;;;;;;;0.40;0.30;;;;;;;11.68;53.49;102146.91;5056033;28;20434;-70
2021/03/28 10:54:54;;;;;;;0.40;0.30;;;;;;;11.74;51.67;102149.38;5055985;28;20462;-70
2021/03/28 10:57:57;;;;;;;0.50;0.47;;;;;;;11.78;52.24;102152.38;5056003;28;20523;-70
2021/03/28 11:01:02;;;;;;;0.40;0.30;;;;;;;11.82;50.38;102151.59;5055541;28;20962;-70
2021/03/28 11:03:58;;;;;;;0.50;0.40;;;;;;;11.88;51.37;102143.44;5055613;28;20474;-70
2021/03/28 11:07:04;;;;;;;0.40;0.30;;;;;;;12.06;50.37;102153.75;5055875;28;20900;-70
2021/03/28 11:09:53;;;;;;;0.80;0.43;;;;;;;12.26;51.04;102145.59;5005866;28;20965;-70
2021/03/28 11:12:41;;;;;;;0.50;0.33;;;;;;;12.33;50.68;102135.25;5055597;28;20534;-70
2021/03/28 11:15:25;;;;;;;0.40;0.30;;;;;;;12.43;49.98;102139.84;5055525;28;20469;-70
2021/03/28 11:18:19;;;;;;;2.53;0.80;;;;;;;12.54;50.18;102160.50;5055373;28;20938;-70
2021/03/28 11:20:57;;;;;;;0.70;0.50;;;;;;;12.48;49.88;102147.19;5055573;28;20859;-70
2021/03/28 11:23:43;;;;;;;0.40;0.30;;;;;;;12.71;49.91;102145.78;5055121;28;20908;-70
2021/03/28 11:26:33;;;;;;;0.40;0.30;;;;;;;13.40;49.22;102146.84;5055237;28;20536;-70
2021/03/28 11:29:35;;;;;;;0.80;0.63;;;;;;;14.47;46.28;102152.22;5055283;28;20415;-70
2021/03/28 11:32:10;;;;;;;1.03;0.40;;;;;;;14.39;47.19;102150.97;5048209;28;20449;-69
2021/03/28 11:34:53;;;;;;;0.50;0.33;;;;;;;14.22;46.82;102142.41;5055190;28;20462;-70
2021/03/28 11:37:38;;;;;;;0.40;0.30;;;;;;;13.94;48.78;102140.47;5055407;28;20419;-70
2021/03/28 11:40:25;;;;;;;0.40;0.27;;;;;;;13.80;49.03;102146.56;5054287;28;20437;-71
2021/03/28 11:43:13;;;;;;;0.53;0.30;;;;;;;13.69;48.67;102147.75;5055141;28;20481;-70
2021/03/28 11:45:42;;;;;;;0.97;0.50;;;;;;;13.27;49.22;102138.19;5054733;28;20482;-70
2021/03/28 11:48:25;;;;;;;0.40;0.30;;;;;;;13.37;49.32;102132.72;5054299;28;20966;-70
2021/03/28 11:50:53;;;;;;;7.73;0.40;;;;;;;13.35;48.86;102134.88;5055016;28;20435;-70
2021/03/28 11:53:30;;;;;;;0.73;0.40;;;;;;;13.69;49.24;102128.69;5054784;28;20472;-70
2021/03/28 11:55:57;;;;;;;0.40;0.30;;;;;;;13.96;46.42;102135.56;5054352;28;20434;-70
2021/03/28 11:58:50;;;;;;;0.70;0.40;;;;;;;14.19;nan;102139.44;5054241;28;20439;-71
2021/03/28 12:01:46;;;;;;;0.60;0.60;;;;;;;14.16;46.74;102124.47;5054364;28;20446;-69
2021/03/28 12:04:24;;;;;;;0.40;0.30;;;;;;;13.80;47.79;102132.94;5045391;28;20486;-69
2021/03/28 12:06:56;;;;;;;0.40;0.30;;;;;;;13.63;48.00;102132.53;5054521;28;20447;-70
2021/03/28 12:09:29;;;;;;;0.60;0.43;;;;;;;13.66;48.17;102134.69;5054383;28;20426;-70
2021/03/28 12:12:00;;;;;;;0.50;0.40;;;;;;;13.99;48.55;102143.13;5056946;28;20445;-70
2021/03/28 12:14:34;;;;;;;0.40;0.30;;;;;;;14.46;47.37;102138.88;5056132;28;20465;-71
2021/03/28 12:17:31;;;;;;;0.50;0.40;;;;;;;14.92;46.17;102143.84;5054669;28;20465;-70
2021/03/28 12:20:18;;;;;;;0.40;0.30;;;;;;;14.83;46.94;102132.75;5054045;28;20474;-70
2021/03/28 12:22:49;;;;;;;0.50;0.50;;;;;;;15.06;46.99;102126.47;5054546;28;20488;-71
2021/03/28 12:25:23;;;;;;;0.50;0.30;;;;;;;15.28;46.32;102131.38;5055057;28;20482;-70
2021/03/28 12:28:05;;;;;;;0.40;0.40;;;;;;;14.65;47.64;102134.34;5054648;28;20419;-70
2021/03/28 12:30:35;;;;;;;0.40;0.30;;;;;;;14.29;49.38;102115.59;5054482;28;20437;-71
2021/03/28 12:33:06;;;;;;;0.50;0.40;;;;;;;14.08;50.13;102125.09;5054127;28;20511;-71
2021/03/28 12:36:05;;;;;;;0.50;0.37;;;;;;;13.95;50.31;102126.56;5054192;28;20433;-70
2021/03/28 12:38:51;;;;;;;0.40;0.30;;;;;;;13.71;50.91;102121.03;5054042;28;20427;-70
2021/03/28 12:41:34;;;;;;;0.60;0.37;;;;;;;13.57;52.18;102118.16;5053966;28;20488;-70
2021/03/28 12:44:29;;;;;;;0.60;0.30;;;;;;;13.42;52.40;102118.25;5053333;28;20543;-70
2021/03/28 12:47:05;;;;;;;0.40;0.30;;;;;;;13.42;51.96;102112.00;5057500;28;20427;-70
2021/03/28 12:49:35;;;;;;;0.47;0.33;;;;;;;13.54;51.80;102109.72;5053391;28;20902;-70
2021/03/28 12:52:17;;;;;;;1.03;0.93;;;;;;;13.59;52.38;102112.41;5053513;28;20828;-71
2021/03/28 12:55:07;;;;;;;2.40;0.83;;;;;;;13.65;51.83;102107.75;5053959;28;20828;-70
2021/03/28 12:57:35;;;;;;;0.50;0.40;;;;;;;13.69;52.80;102100.66;5053766;28;20435;-70
2021/03/28 13:00:13;;;;;;;0.40;0.30;;;;;;;13.65;52.88;102092.22;5053710;28;20485;-70
2021/03/28 13:02:39;;;;;;;0.40;0.30;;;;;;;13.63;51.82;102103.41;5053554;28;20426;-70